createdAt,value
2023-04-30T00:02:21.423Z,12.40
2023-04-30T00:04:48.404Z,11.25
2023-04-30T00:07:15.388Z,11.98
2023-04-30T00:09:42.320Z,12.50
2023-04-30T00:12:09.261Z,11.98
2023-04-30T00:14:36.745Z,8.13
2023-04-30T00:17:03.734Z,10.65
2023-04-30T00:19:30.884Z,10.63
2023-04-30T00:21:57.786Z,11.70
2023-04-30T00:24:24.778Z,10.07
2023-04-30T00:26:51.673Z,10.82
2023-04-30T00:29:18.597Z,9.18
2023-04-30T00:31:45.706Z,11.05
2023-04-30T00:34:12.752Z,12.07
2023-04-30T00:36:40.649Z,7.63
2023-04-30T00:39:07.663Z,8.98
2023-04-30T00:41:36.305Z,8.57
2023-04-30T00:44:03.346Z,9.60
2023-04-30T00:46:31.003Z,9.15
2023-04-30T00:48:58.357Z,8.02
2023-04-30T00:51:26.668Z,14.13
2023-04-30T00:53:54.055Z,10.23
2023-04-30T00:56:21.233Z,7.40
2023-04-30T00:58:50.071Z,8.63
2023-04-30T01:01:18.040Z,7.40
2023-04-30T01:03:45.111Z,7.82
2023-04-30T01:06:12.608Z,8.52
2023-04-30T01:08:39.626Z,9.32
2023-04-30T01:11:12.324Z,7.95
2023-04-30T01:13:49.390Z,11.57
2023-04-30T01:16:23.465Z,7.78
2023-04-30T01:19:11.922Z,9.02
2023-04-30T01:21:41.813Z,9.70
2023-04-30T01:24:45.980Z,5.85
2023-04-30T01:27:40.679Z,7.25
2023-04-30T01:30:09.172Z,6.20
2023-04-30T01:32:36.102Z,4.65
2023-04-30T01:35:03.443Z,9.98
2023-04-30T01:38:12.525Z,6.18
2023-04-30T01:41:21.653Z,9.70
2023-04-30T01:43:54.624Z,14.02
2023-04-30T01:46:27.524Z,12.88
2023-04-30T01:49:21.655Z,10.63
2023-04-30T01:51:56.198Z,9.45
2023-04-30T01:57:12.680Z,9.65
2023-04-30T01:59:41.107Z,6.80
2023-04-30T02:02:08.090Z,6.90
2023-04-30T02:04:35.012Z,10.05
2023-04-30T02:07:01.970Z,7.35
2023-04-30T02:09:28.843Z,5.70
2023-04-30T02:11:57.919Z,6.90
2023-04-30T02:14:25.225Z,5.97
2023-04-30T02:16:52.132Z,6.93
2023-04-30T02:19:19.013Z,12.60
2023-04-30T02:21:45.945Z,7.82
2023-04-30T02:24:12.862Z,6.47
2023-04-30T02:26:39.727Z,7.90
2023-04-30T02:29:06.604Z,7.05
2023-04-30T02:31:33.598Z,7.30
2023-04-30T02:34:00.525Z,11.30
2023-04-30T02:36:27.457Z,10.70
2023-04-30T02:38:54.342Z,7.53
2023-04-30T02:41:21.815Z,9.77
2023-04-30T02:43:48.784Z,11.10
2023-04-30T02:46:15.870Z,5.97
2023-04-30T02:48:42.826Z,9.27
2023-04-30T02:51:09.867Z,9.13
2023-04-30T02:53:36.769Z,7.00
2023-04-30T02:56:03.870Z,8.60
2023-04-30T02:58:30.784Z,7.70
2023-04-30T03:00:57.718Z,5.68
2023-04-30T03:03:24.710Z,7.53
2023-04-30T03:05:51.573Z,10.48
2023-04-30T03:08:18.473Z,10.95
2023-04-30T03:10:45.409Z,8.20
2023-04-30T03:13:12.366Z,12.55
2023-04-30T03:15:39.309Z,5.22
2023-04-30T03:18:06.277Z,7.30
2023-04-30T03:20:33.261Z,7.20
2023-04-30T03:23:00.114Z,10.13
2023-04-30T03:25:27.097Z,9.50
2023-04-30T03:27:53.952Z,11.57
2023-04-30T03:30:21.075Z,6.57
2023-04-30T03:32:48.055Z,10.90
2023-04-30T03:35:15.060Z,8.65
2023-04-30T03:37:42.146Z,10.00
2023-04-30T03:40:09.392Z,7.13
2023-04-30T03:42:36.268Z,9.25
2023-04-30T03:45:03.581Z,15.07
2023-04-30T03:47:30.496Z,7.35
2023-04-30T03:49:57.463Z,8.82
2023-04-30T03:52:24.730Z,7.00
2023-04-30T03:54:51.593Z,8.00
2023-04-30T03:57:18.702Z,11.73
2023-04-30T03:59:45.685Z,8.30
2023-04-30T04:02:12.682Z,6.80
2023-04-30T04:04:39.727Z,7.63
2023-04-30T04:07:08.128Z,11.00
2023-04-30T04:09:35.612Z,10.15
2023-04-30T04:12:02.809Z,10.18
2023-04-30T04:14:29.813Z,6.07
2023-04-30T04:16:58.030Z,12.38
2023-04-30T04:19:24.976Z,5.53
2023-04-30T04:21:51.825Z,13.57
2023-04-30T04:24:18.829Z,9.80
2023-04-30T04:26:47.932Z,7.93
2023-04-30T04:29:14.990Z,8.00
2023-04-30T04:31:42.931Z,6.60
2023-04-30T04:34:10.075Z,7.07
2023-04-30T04:36:37.113Z,12.73
2023-04-30T04:39:04.138Z,8.48
2023-04-30T04:41:35.720Z,9.30
2023-04-30T04:44:03.514Z,12.35
2023-04-30T04:46:38.724Z,8.63
2023-04-30T04:49:05.918Z,10.02
2023-04-30T04:51:33.169Z,12.65
2023-04-30T04:54:00.068Z,7.60
2023-04-30T04:56:27.194Z,5.18
2023-04-30T04:58:54.101Z,7.85
2023-04-30T05:01:21.426Z,13.48
2023-04-30T05:03:49.376Z,8.57
2023-04-30T05:06:16.482Z,8.60
2023-04-30T05:08:43.460Z,8.05
2023-04-30T05:11:10.753Z,11.15
2023-04-30T05:13:37.713Z,12.77
2023-04-30T05:16:05.079Z,8.10
2023-04-30T05:18:32.129Z,9.40
2023-04-30T05:20:59.055Z,12.35
2023-04-30T05:23:26.021Z,6.50
2023-04-30T05:25:53.545Z,11.75
2023-04-30T05:28:20.444Z,10.70
2023-04-30T05:30:47.435Z,13.38
2023-04-30T05:33:14.392Z,9.52
2023-04-30T05:35:41.379Z,9.40
2023-04-30T05:38:08.244Z,9.13
2023-04-30T05:40:35.141Z,8.77
2023-04-30T05:43:02.417Z,9.80
2023-04-30T05:45:29.358Z,9.38
2023-04-30T05:47:56.252Z,9.68
2023-04-30T05:50:23.269Z,6.60
2023-04-30T05:52:50.219Z,9.73
2023-04-30T05:55:17.127Z,9.50
2023-04-30T05:57:44.017Z,11.00
2023-04-30T06:00:11.356Z,10.68
2023-04-30T06:02:38.459Z,13.55
2023-04-30T06:05:07.988Z,10.02
2023-04-30T06:07:35.019Z,9.43
2023-04-30T06:10:01.944Z,8.20
2023-04-30T06:12:28.872Z,10.63
2023-04-30T06:14:55.956Z,11.43
2023-04-30T06:17:22.920Z,8.68
2023-04-30T06:19:49.876Z,10.65
2023-04-30T06:22:16.799Z,12.35
2023-04-30T06:24:43.670Z,13.10
2023-04-30T06:27:10.668Z,8.52
2023-04-30T06:29:37.559Z,8.75
2023-04-30T06:32:06.424Z,7.75
2023-04-30T06:34:35.355Z,8.65
2023-04-30T06:37:02.232Z,10.93
2023-04-30T06:39:29.191Z,8.27
2023-04-30T06:41:56.093Z,11.90
2023-04-30T06:44:23.028Z,12.30
2023-04-30T06:46:49.906Z,8.25
2023-04-30T06:49:16.906Z,11.60
2023-04-30T06:51:44.125Z,7.78
2023-04-30T06:54:11.201Z,16.02
2023-04-30T06:56:38.104Z,9.63
2023-04-30T06:59:05.078Z,12.80
2023-04-30T07:01:32.011Z,8.13
2023-04-30T07:04:00.260Z,10.40
2023-04-30T07:06:27.295Z,8.95
2023-04-30T07:08:54.261Z,7.78
2023-04-30T07:11:21.380Z,14.00
2023-04-30T07:13:48.385Z,5.57
2023-04-30T07:16:17.192Z,7.97
2023-04-30T07:18:44.145Z,5.18
2023-04-30T07:21:11.052Z,5.97
2023-04-30T07:23:37.950Z,7.40
2023-04-30T07:26:04.990Z,8.60
2023-04-30T07:28:31.958Z,10.05
2023-04-30T07:30:58.847Z,7.22
2023-04-30T07:33:25.959Z,7.32
2023-04-30T07:35:54.475Z,9.48
2023-04-30T07:38:21.869Z,8.25
2023-04-30T07:40:48.781Z,6.38
2023-04-30T07:43:15.708Z,9.20
2023-04-30T07:45:43.234Z,11.45
2023-04-30T07:48:10.297Z,9.13
2023-04-30T07:50:37.426Z,6.32
2023-04-30T07:53:05.165Z,7.60
2023-04-30T07:55:32.114Z,7.72
2023-04-30T07:57:59.700Z,7.22
2023-04-30T08:00:26.641Z,6.13
2023-04-30T08:02:53.738Z,8.70
2023-04-30T08:05:21.258Z,8.45
2023-04-30T08:07:48.133Z,5.53
2023-04-30T08:10:15.084Z,4.18
2023-04-30T08:12:42.065Z,5.50
2023-04-30T08:15:09.072Z,8.10
2023-04-30T08:17:36.096Z,4.88
2023-04-30T08:20:07.222Z,4.38
2023-04-30T08:22:34.300Z,6.88
2023-04-30T08:25:02.047Z,9.93
2023-04-30T08:27:30.796Z,10.20
2023-04-30T08:29:57.878Z,5.25
2023-04-30T08:32:24.987Z,6.13
2023-04-30T08:34:52.334Z,7.13
2023-04-30T08:37:19.399Z,7.68
2023-04-30T08:39:46.319Z,6.72
2023-04-30T08:42:15.311Z,4.70
2023-04-30T08:44:46.704Z,4.75
2023-04-30T08:47:14.726Z,6.40
2023-04-30T08:49:42.655Z,6.72
2023-04-30T08:52:09.870Z,5.00
2023-04-30T08:54:37.647Z,5.28
2023-04-30T08:57:05.452Z,4.18
2023-04-30T08:59:32.308Z,5.15
2023-04-30T09:02:01.621Z,3.35
2023-04-30T09:04:29.231Z,3.55
2023-04-30T09:07:05.213Z,4.97
2023-04-30T09:09:38.959Z,4.28
2023-04-30T09:12:19.953Z,4.45
2023-04-30T09:15:06.955Z,6.95
2023-04-30T09:17:34.897Z,4.97
2023-04-30T09:20:12.288Z,4.88
2023-04-30T09:22:41.354Z,5.80
2023-04-30T09:25:09.750Z,4.15
2023-04-30T09:27:36.711Z,4.50
2023-04-30T09:30:04.846Z,8.48
2023-04-30T09:32:32.291Z,7.57
2023-04-30T09:34:59.174Z,5.55
2023-04-30T09:37:39.131Z,3.45
2023-04-30T09:40:06.864Z,4.95
2023-04-30T09:42:34.219Z,3.03
2023-04-30T09:45:01.228Z,4.18
2023-04-30T09:51:15.772Z,3.00
2023-04-30T09:53:43.997Z,4.68
2023-04-30T09:56:14.222Z,6.25
2023-04-30T09:58:47.483Z,8.30
2023-04-30T10:01:14.522Z,4.15
2023-04-30T10:03:43.390Z,3.03
2023-04-30T10:06:14.013Z,3.60
2023-04-30T10:08:42.807Z,3.38
2023-04-30T10:11:16.624Z,5.07
2023-04-30T10:14:10.522Z,4.57
2023-04-30T10:16:49.355Z,6.10
2023-04-30T10:19:33.189Z,3.15
2023-04-30T10:22:01.737Z,4.35
2023-04-30T10:28:17.167Z,5.45
2023-04-30T10:30:44.735Z,4.63
2023-04-30T10:33:17.597Z,5.95
2023-04-30T10:35:55.417Z,3.33
2023-04-30T10:38:25.297Z,6.00
2023-04-30T10:41:06.390Z,5.15
2023-04-30T10:43:36.001Z,4.50
2023-04-30T10:46:04.247Z,6.10
2023-04-30T10:48:35.625Z,4.47
2023-04-30T10:51:02.601Z,3.05
2023-04-30T10:53:32.929Z,4.35
2023-04-30T10:56:06.942Z,3.17
2023-04-30T10:58:35.780Z,4.47
2023-04-30T11:01:17.535Z,5.25
2023-04-30T11:04:11.145Z,6.47
2023-04-30T11:06:53.702Z,4.07
2023-04-30T11:09:34.884Z,5.40
2023-04-30T11:12:11.055Z,4.35
2023-04-30T11:14:45.089Z,2.95
2023-04-30T11:17:25.179Z,3.72
2023-04-30T11:19:53.519Z,6.97
2023-04-30T11:22:25.370Z,4.72
2023-04-30T11:25:13.303Z,6.78
2023-04-30T11:27:45.196Z,4.78
2023-04-30T11:30:19.311Z,3.75
2023-04-30T11:32:48.263Z,3.80
2023-04-30T11:35:19.078Z,4.85
2023-04-30T11:37:46.311Z,8.38
2023-04-30T11:40:14.435Z,3.00
2023-04-30T11:42:47.071Z,3.80
2023-04-30T11:45:20.990Z,5.95
2023-04-30T11:47:54.015Z,5.90
2023-04-30T11:50:33.521Z,10.00
2023-04-30T11:53:03.428Z,4.97
2023-04-30T11:55:30.712Z,4.15
2023-04-30T11:58:00.086Z,3.95
2023-04-30T12:00:31.621Z,4.00
2023-04-30T12:03:01.165Z,10.05
2023-04-30T12:05:28.380Z,4.15
2023-04-30T12:08:04.492Z,3.95
2023-04-30T12:10:32.602Z,4.32
2023-04-30T12:12:59.667Z,3.72
2023-04-30T12:15:27.701Z,4.43
2023-04-30T12:17:56.768Z,4.13
2023-04-30T12:20:29.987Z,3.42
2023-04-30T12:22:58.665Z,3.30
2023-04-30T12:25:29.103Z,4.85
2023-04-30T12:27:58.973Z,7.03
2023-04-30T12:30:27.155Z,4.95
2023-04-30T12:32:57.154Z,4.53
2023-04-30T12:35:25.037Z,5.93
2023-04-30T12:38:01.606Z,4.97
2023-04-30T12:40:28.938Z,6.95
2023-04-30T12:43:06.715Z,7.85
2023-04-30T12:45:48.502Z,3.72
2023-04-30T12:48:16.516Z,3.72
2023-04-30T12:50:48.031Z,4.32
2023-04-30T12:53:15.334Z,4.93
2023-04-30T12:55:42.346Z,6.40
2023-04-30T12:58:11.725Z,6.63
2023-04-30T13:00:47.870Z,4.47
2023-04-30T13:03:16.862Z,5.90
2023-04-30T13:05:48.535Z,5.10
2023-04-30T13:08:16.088Z,6.47
2023-04-30T13:10:43.029Z,7.43
2023-04-30T13:13:11.109Z,5.90
2023-04-30T13:15:38.686Z,6.60
2023-04-30T13:18:08.876Z,7.00
2023-04-30T13:20:36.919Z,7.63
2023-04-30T13:23:04.103Z,6.15
2023-04-30T13:25:32.337Z,4.30
2023-04-30T13:27:59.447Z,5.80
2023-04-30T13:30:26.533Z,7.28
2023-04-30T13:32:54.443Z,7.25
2023-04-30T13:35:21.880Z,5.70
2023-04-30T13:37:52.443Z,5.03
2023-04-30T13:40:20.848Z,6.35
2023-04-30T13:42:49.194Z,7.03
2023-04-30T13:45:16.635Z,5.85
2023-04-30T13:47:43.682Z,4.35
2023-04-30T13:50:11.180Z,5.38
2023-04-30T13:52:38.114Z,6.82
2023-04-30T13:55:05.832Z,4.78
2023-04-30T13:57:33.414Z,5.45
2023-04-30T14:00:00.528Z,10.07
2023-04-30T14:02:30.346Z,5.32
2023-04-30T14:05:05.954Z,5.40
2023-04-30T14:07:34.008Z,7.38
2023-04-30T14:10:01.021Z,7.90
2023-04-30T14:12:30.738Z,5.68
2023-04-30T14:14:58.035Z,8.00
2023-04-30T14:17:27.081Z,5.32
2023-04-30T14:19:55.038Z,6.90
2023-04-30T14:22:22.282Z,7.15
2023-04-30T14:24:49.150Z,6.95
2023-04-30T14:27:16.127Z,4.68
2023-04-30T14:29:43.073Z,8.07
2023-04-30T14:32:10.049Z,6.45
2023-04-30T14:34:37.695Z,5.88
2023-04-30T14:37:04.689Z,5.38
2023-04-30T14:39:31.742Z,6.70
2023-04-30T14:41:58.750Z,5.20
2023-04-30T14:44:26.686Z,7.50
2023-04-30T14:46:53.893Z,5.90
2023-04-30T14:49:20.830Z,6.22
2023-04-30T14:51:47.765Z,6.13
2023-04-30T14:54:14.926Z,6.18
2023-04-30T14:56:41.890Z,5.65
2023-04-30T14:59:08.806Z,8.40
2023-04-30T15:01:35.820Z,6.88
2023-04-30T15:04:03.632Z,5.20
2023-04-30T15:06:31.134Z,5.00
2023-04-30T15:08:58.173Z,5.93
2023-04-30T15:11:25.277Z,6.13
2023-04-30T15:13:53.125Z,8.13
2023-04-30T15:16:20.075Z,7.07
2023-04-30T15:18:48.938Z,9.32
2023-04-30T15:21:16.005Z,3.83
2023-04-30T15:23:42.908Z,5.05
2023-04-30T15:26:09.956Z,5.13
2023-04-30T15:28:37.157Z,7.25
2023-04-30T15:31:06.452Z,5.40
2023-04-30T15:33:39.586Z,11.20
2023-04-30T15:36:06.842Z,6.95
2023-04-30T15:38:34.498Z,7.25
2023-04-30T15:41:01.522Z,6.82
2023-04-30T15:43:29.970Z,7.32
2023-04-30T15:45:57.230Z,8.35
2023-04-30T15:48:24.193Z,5.20
2023-04-30T15:50:51.095Z,6.45
2023-04-30T15:53:18.033Z,5.72
2023-04-30T15:55:46.797Z,5.15
2023-04-30T15:58:13.810Z,8.27
2023-04-30T16:00:41.276Z,6.32
2023-04-30T16:03:08.356Z,5.70
2023-04-30T16:05:38.845Z,8.02
2023-04-30T16:08:12.553Z,6.80
2023-04-30T16:10:39.580Z,4.95
2023-04-30T16:13:06.610Z,6.20
2023-04-30T16:15:33.604Z,6.90
2023-04-30T16:18:00.995Z,6.63
2023-04-30T16:20:28.215Z,6.43
2023-04-30T16:22:55.858Z,6.28
2023-04-30T16:25:22.820Z,4.30
2023-04-30T16:27:50.362Z,4.18
2023-04-30T16:30:17.382Z,5.03
2023-04-30T16:32:44.712Z,7.80
2023-04-30T16:35:11.747Z,4.47
2023-04-30T16:37:38.665Z,4.68
2023-04-30T16:40:07.700Z,3.78
2023-04-30T16:42:35.107Z,4.20
2023-04-30T16:45:02.249Z,5.20
2023-04-30T16:47:29.273Z,4.30
2023-04-30T16:49:58.535Z,5.07
2023-04-30T16:52:25.826Z,5.47
2023-04-30T16:54:52.849Z,9.88
2023-04-30T16:57:19.965Z,5.05
2023-04-30T16:59:47.526Z,4.90
2023-04-30T17:02:14.446Z,6.80
2023-04-30T17:04:41.527Z,5.40
2023-04-30T17:07:08.799Z,5.65
2023-04-30T17:09:36.848Z,4.43
2023-04-30T17:12:05.614Z,6.85
2023-04-30T17:14:32.621Z,4.40
2023-04-30T17:16:59.518Z,8.00
2023-04-30T17:19:26.478Z,6.68
2023-04-30T17:21:53.398Z,6.63
2023-04-30T17:24:20.309Z,6.03
2023-04-30T17:26:47.854Z,6.43
2023-04-30T17:29:14.828Z,6.30
2023-04-30T17:31:42.054Z,5.50
2023-04-30T17:34:09.048Z,5.95
2023-04-30T17:36:35.988Z,5.22
2023-04-30T17:39:05.689Z,7.25
2023-04-30T17:41:33.011Z,6.38
2023-04-30T17:44:00.056Z,8.38
2023-04-30T17:46:27.065Z,8.00
2023-04-30T17:48:54.038Z,7.22
2023-04-30T17:51:21.005Z,10.23
2023-04-30T17:53:47.995Z,6.80
2023-04-30T17:56:15.190Z,6.95
2023-04-30T17:58:42.244Z,7.55
2023-04-30T18:01:09.410Z,8.38
2023-04-30T18:03:36.697Z,10.40
2023-04-30T18:06:04.096Z,10.43
2023-04-30T18:08:31.293Z,10.00
2023-04-30T18:10:58.265Z,8.95
2023-04-30T18:13:27.486Z,9.68
2023-04-30T18:15:54.555Z,10.07
2023-04-30T18:18:21.929Z,9.15
2023-04-30T18:20:49.958Z,9.10
2023-04-30T18:23:16.997Z,14.02
2023-04-30T18:25:44.043Z,8.13
2023-04-30T18:28:11.158Z,8.70
2023-04-30T18:30:38.496Z,6.75
2023-04-30T18:33:05.711Z,7.90
2023-04-30T18:35:34.173Z,7.53
2023-04-30T18:38:01.946Z,7.32
2023-04-30T18:40:29.310Z,8.45
2023-04-30T18:42:56.991Z,7.68
2023-04-30T18:45:24.345Z,6.68
2023-04-30T18:47:51.387Z,9.05
2023-04-30T18:50:19.631Z,7.90
2023-04-30T18:52:46.752Z,6.70
2023-04-30T18:55:14.492Z,12.27
2023-04-30T18:57:42.525Z,10.15
2023-04-30T19:00:10.108Z,10.02
2023-04-30T19:02:37.294Z,11.43
2023-04-30T19:05:04.563Z,10.73
2023-04-30T19:07:31.536Z,9.30
2023-04-30T19:09:58.817Z,8.57
2023-04-30T19:12:26.194Z,13.25
2023-04-30T19:14:53.120Z,14.07
2023-04-30T19:17:21.861Z,13.30
2023-04-30T19:19:50.279Z,9.82
2023-04-30T19:22:17.524Z,12.75
2023-04-30T19:24:44.475Z,12.48
2023-04-30T19:33:25.920Z,11.57
2023-04-30T19:35:53.545Z,10.32
2023-04-30T19:38:23.914Z,9.88
2023-04-30T19:40:52.547Z,14.20
2023-04-30T19:43:20.826Z,12.00
2023-04-30T19:45:51.325Z,12.65
2023-04-30T19:48:18.411Z,9.52
2023-04-30T19:50:46.816Z,17.75
2023-04-30T19:53:14.648Z,10.15
2023-04-30T19:55:42.869Z,9.60
2023-04-30T19:58:09.867Z,7.63
2023-04-30T20:00:38.194Z,13.63
2023-04-30T20:03:05.611Z,17.98
2023-04-30T20:05:34.022Z,13.32
2023-04-30T20:08:03.408Z,8.85
2023-04-30T20:10:34.894Z,12.48
2023-04-30T20:13:02.384Z,10.02
2023-04-30T20:15:29.535Z,9.68
2023-04-30T20:17:56.681Z,11.18
2023-04-30T20:20:26.607Z,12.57
2023-04-30T20:22:55.113Z,16.52
2023-04-30T20:25:23.151Z,13.55
2023-04-30T20:27:50.061Z,9.95
2023-04-30T20:30:17.413Z,10.57
2023-04-30T20:32:44.930Z,10.10
2023-04-30T20:35:11.982Z,15.18
2023-04-30T20:37:38.988Z,12.73
2023-04-30T20:40:08.058Z,12.48
2023-04-30T20:42:35.128Z,17.58
2023-04-30T20:45:03.915Z,14.30
2023-04-30T20:47:32.611Z,10.30
2023-04-30T20:49:59.564Z,13.80
2023-04-30T20:52:26.456Z,11.20
2023-04-30T20:54:53.347Z,11.27
2023-04-30T20:57:20.240Z,17.58
2023-04-30T20:59:47.181Z,13.68
2023-04-30T21:02:14.121Z,16.08
2023-04-30T21:04:41.001Z,15.07
2023-04-30T21:07:07.995Z,11.15
2023-04-30T21:13:22.453Z,13.23
2023-04-30T21:15:53.593Z,11.85
2023-04-30T21:18:20.535Z,12.43
2023-04-30T21:20:47.469Z,12.45
2023-04-30T21:23:14.788Z,11.68
2023-04-30T21:25:42.063Z,14.00
2023-04-30T21:28:09.046Z,12.77
2023-04-30T21:30:38.768Z,10.27
2023-04-30T21:33:05.753Z,12.05
2023-04-30T21:35:33.218Z,13.77
2023-04-30T21:38:00.518Z,14.48
2023-04-30T21:40:27.576Z,14.80
2023-04-30T21:42:54.825Z,11.70
2023-04-30T21:45:21.730Z,13.02
2023-04-30T21:47:48.843Z,13.48
2023-04-30T21:50:16.031Z,14.00
2023-04-30T21:52:43.270Z,10.80
2023-04-30T21:55:10.542Z,10.88
2023-04-30T21:57:37.424Z,10.73
2023-04-30T22:00:06.552Z,10.10
2023-04-30T22:02:33.585Z,10.68
2023-04-30T22:05:01.064Z,9.13
2023-04-30T22:07:28.248Z,13.90
2023-04-30T22:09:55.476Z,10.50
2023-04-30T22:12:25.128Z,8.88
2023-04-30T22:14:55.691Z,10.30
2023-04-30T22:17:22.839Z,14.88
2023-04-30T22:19:49.838Z,12.27
2023-04-30T22:22:17.055Z,11.52
2023-04-30T22:24:44.019Z,11.45
2023-04-30T22:27:14.093Z,10.43
2023-04-30T22:29:41.969Z,12.82
2023-04-30T22:32:09.573Z,13.35
2023-04-30T22:34:38.901Z,15.63
2023-04-30T22:37:06.210Z,11.02
2023-04-30T22:39:33.201Z,15.82
2023-04-30T22:42:00.436Z,9.60
2023-04-30T22:44:27.506Z,9.80
2023-04-30T22:46:58.031Z,10.45
2023-04-30T22:49:31.730Z,11.23
2023-04-30T22:51:59.792Z,11.70
2023-04-30T22:54:26.977Z,8.20
2023-04-30T22:56:53.921Z,18.15
2023-04-30T22:59:20.981Z,10.20
2023-04-30T23:01:48.171Z,10.65
2023-04-30T23:04:15.145Z,10.45
2023-04-30T23:06:43.016Z,11.90
2023-04-30T23:09:10.265Z,12.77
2023-04-30T23:11:37.222Z,11.82
2023-04-30T23:14:04.431Z,9.90
2023-04-30T23:16:31.408Z,13.02
2023-04-30T23:18:58.453Z,9.05
2023-04-30T23:21:25.458Z,11.05
2023-04-30T23:23:52.416Z,13.30
2023-04-30T23:26:19.355Z,17.58
2023-04-30T23:28:46.235Z,9.57
2023-04-30T23:31:13.216Z,13.02
2023-04-30T23:33:40.169Z,12.40
2023-04-30T23:36:07.366Z,9.48
2023-04-30T23:38:34.254Z,10.15
2023-04-30T23:41:03.024Z,10.95
2023-04-30T23:43:31.498Z,9.45
2023-04-30T23:46:00.132Z,9.70
2023-04-30T23:48:27.293Z,8.88
2023-04-30T23:51:05.438Z,11.77
2023-04-30T23:53:32.412Z,13.05
2023-04-30T23:55:59.704Z,8.88
2023-04-30T23:58:27.435Z,11.85
